createdAt,value
2022-10-16T00:01:00.287Z,9.00
2022-10-16T00:03:30.414Z,9.00
2022-10-16T00:06:00.994Z,11.00
2022-10-16T00:08:29.078Z,13.75
2022-10-16T00:11:01.459Z,11.20
2022-10-16T00:13:29.529Z,12.50
2022-10-16T00:15:58.039Z,17.00
2022-10-16T00:18:26.231Z,11.40
2022-10-16T00:23:28.563Z,16.00
2022-10-16T00:25:57.854Z,8.00
2022-10-16T00:28:26.047Z,10.40
2022-10-16T00:30:54.153Z,8.75
2022-10-16T00:33:22.340Z,11.00
2022-10-16T00:35:51.142Z,6.00
2022-10-16T00:38:19.187Z,7.60
2022-10-16T00:40:48.571Z,7.00
2022-10-16T00:43:34.089Z,7.00
2022-10-16T00:46:02.408Z,9.00
2022-10-16T00:48:30.692Z,7.40
2022-10-16T00:50:58.729Z,7.00
2022-10-16T00:53:26.904Z,6.00
2022-10-16T00:55:56.303Z,6.00
2022-10-16T00:58:24.522Z,7.00
2022-10-16T01:00:52.631Z,8.00
2022-10-16T01:03:30.931Z,6.00
2022-10-16T01:06:11.341Z,9.00
2022-10-16T01:08:44.949Z,5.00
2022-10-16T01:11:17.613Z,8.00
2022-10-16T01:13:48.711Z,8.40
2022-10-16T01:16:19.734Z,7.00
2022-10-16T01:18:48.575Z,7.00
2022-10-16T01:21:18.364Z,6.00
2022-10-16T01:23:50.018Z,7.00
2022-10-16T01:26:26.838Z,8.00
2022-10-16T01:28:58.132Z,7.00
2022-10-16T01:31:28.013Z,7.00
2022-10-16T01:33:58.850Z,8.00
2022-10-16T01:36:28.766Z,4.00
2022-10-16T01:38:57.071Z,6.40
2022-10-16T01:41:27.065Z,6.60
2022-10-16T01:43:59.183Z,5.00
2022-10-16T01:46:27.293Z,6.50
2022-10-16T01:48:55.343Z,4.00
2022-10-16T01:51:23.372Z,5.00
2022-10-16T01:53:53.050Z,5.00
2022-10-16T01:56:21.493Z,4.60
2022-10-16T01:58:51.450Z,6.00
2022-10-16T02:01:21.522Z,5.20
2022-10-16T02:03:50.366Z,5.00
2022-10-16T02:06:18.415Z,6.00
2022-10-16T02:08:46.433Z,5.25
2022-10-16T02:11:14.480Z,5.80
2022-10-16T02:13:45.866Z,3.60
2022-10-16T02:16:14.372Z,6.00
2022-10-16T02:18:43.852Z,5.00
2022-10-16T02:21:14.390Z,3.75
2022-10-16T02:23:45.449Z,4.00
2022-10-16T02:26:15.641Z,4.00
2022-10-16T02:28:46.387Z,3.00
2022-10-16T02:31:14.988Z,5.00
2022-10-16T02:33:44.581Z,3.00
2022-10-16T02:36:12.619Z,3.00
2022-10-16T02:38:41.229Z,4.00
2022-10-16T02:41:09.356Z,5.00
2022-10-16T02:43:37.441Z,3.00
2022-10-16T02:46:05.481Z,6.00
2022-10-16T02:48:33.479Z,3.00
2022-10-16T02:51:02.870Z,5.00
2022-10-16T02:53:30.884Z,4.00
2022-10-16T02:55:58.935Z,5.40
2022-10-16T02:58:26.938Z,5.00
2022-10-16T03:00:55.028Z,4.00
2022-10-16T03:03:23.141Z,4.00
2022-10-16T03:05:51.178Z,3.00
2022-10-16T03:08:24.454Z,4.00
2022-10-16T03:10:52.685Z,3.00
2022-10-16T03:13:22.215Z,5.00
2022-10-16T03:15:50.437Z,4.60
2022-10-16T03:18:18.450Z,3.00
2022-10-16T03:20:46.506Z,5.00
2022-10-16T03:23:14.514Z,3.40
2022-10-16T03:25:43.896Z,5.00
2022-10-16T03:28:11.918Z,5.80
2022-10-16T03:30:40.758Z,4.00
2022-10-16T03:33:08.778Z,4.00
2022-10-16T03:35:36.814Z,4.00
2022-10-16T03:38:04.872Z,4.00
2022-10-16T03:40:33.267Z,5.60
2022-10-16T03:43:02.659Z,5.50
2022-10-16T03:45:30.712Z,2.20
2022-10-16T03:47:58.727Z,4.00
2022-10-16T03:50:26.774Z,3.00
2022-10-16T03:52:54.864Z,3.20
2022-10-16T03:55:22.904Z,2.75
2022-10-16T03:57:50.916Z,3.00
2022-10-16T04:00:20.361Z,4.00
2022-10-16T04:02:48.375Z,4.40
2022-10-16T04:05:16.577Z,6.40
2022-10-16T04:07:44.584Z,3.00
2022-10-16T04:10:12.654Z,4.00
2022-10-16T04:12:40.666Z,4.00
2022-10-16T04:15:09.767Z,5.00
2022-10-16T04:17:39.133Z,5.60
2022-10-16T04:20:08.189Z,6.50
2022-10-16T04:22:36.225Z,5.00
2022-10-16T04:25:04.347Z,3.60
2022-10-16T04:27:32.395Z,5.00
2022-10-16T04:30:00.474Z,3.00
2022-10-16T04:32:28.513Z,3.00
2022-10-16T04:34:57.991Z,4.00
2022-10-16T04:37:26.519Z,4.00
2022-10-16T04:39:54.915Z,3.00
2022-10-16T04:42:23.052Z,3.60
2022-10-16T04:44:51.110Z,4.00
2022-10-16T04:47:19.114Z,3.00
2022-10-16T04:49:47.185Z,2.75
2022-10-16T04:52:16.583Z,4.00
2022-10-16T04:54:46.158Z,4.20
2022-10-16T04:57:14.170Z,8.00
2022-10-16T04:59:42.199Z,56.25
2022-10-16T05:02:10.214Z,17.50
2022-10-16T05:04:38.253Z,15.25
2022-10-16T05:07:06.266Z,4.00
2022-10-16T05:09:35.654Z,8.80
2022-10-16T05:12:04.551Z,6.00
2022-10-16T05:14:32.703Z,5.25
2022-10-16T05:17:01.891Z,8.50
2022-10-16T05:19:29.920Z,5.60
2022-10-16T05:21:58.025Z,4.00
2022-10-16T05:24:26.060Z,5.00
2022-10-16T05:26:55.431Z,3.00
2022-10-16T05:29:23.495Z,3.60
2022-10-16T05:31:53.108Z,3.00
2022-10-16T05:34:21.448Z,4.50
2022-10-16T05:36:49.454Z,3.60
2022-10-16T05:39:17.639Z,2.00
2022-10-16T05:41:45.710Z,3.00
2022-10-16T05:44:15.097Z,4.60
2022-10-16T05:46:43.144Z,4.00
2022-10-16T05:49:11.182Z,4.75
2022-10-16T05:51:39.195Z,5.00
2022-10-16T05:54:07.255Z,5.00
2022-10-16T05:56:35.427Z,4.00
2022-10-16T05:59:03.466Z,5.00
2022-10-16T06:01:33.074Z,3.00
2022-10-16T06:04:01.189Z,3.25
2022-10-16T06:06:29.525Z,4.25
2022-10-16T06:08:58.118Z,2.00
2022-10-16T06:11:27.155Z,3.00
2022-10-16T06:13:57.602Z,6.00
2022-10-16T06:16:25.744Z,2.40
2022-10-16T06:18:55.411Z,4.00
2022-10-16T06:21:25.805Z,5.00
2022-10-16T06:23:54.018Z,4.00
2022-10-16T06:26:22.952Z,3.50
2022-10-16T06:28:51.203Z,4.00
2022-10-16T06:31:19.448Z,6.25
2022-10-16T06:33:48.095Z,5.00
2022-10-16T06:36:18.315Z,7.40
2022-10-16T06:38:46.505Z,6.00
2022-10-16T06:41:15.306Z,6.75
2022-10-16T06:43:43.431Z,6.50
2022-10-16T06:46:12.113Z,6.50
2022-10-16T06:48:40.242Z,6.00
2022-10-16T06:51:09.286Z,4.00
2022-10-16T06:54:01.047Z,5.00
2022-10-16T06:56:30.714Z,4.00
2022-10-16T06:58:58.796Z,5.25
2022-10-16T07:01:26.870Z,4.20
2022-10-16T07:03:55.046Z,5.00
2022-10-16T07:06:24.105Z,4.00
2022-10-16T07:08:53.533Z,5.00
2022-10-16T07:11:22.326Z,5.25
2022-10-16T07:13:54.579Z,4.00
2022-10-16T07:16:24.365Z,4.00
2022-10-16T07:18:55.374Z,4.00
2022-10-16T07:21:23.992Z,4.00
2022-10-16T07:23:54.099Z,4.00
2022-10-16T07:26:22.167Z,3.00
2022-10-16T07:28:50.670Z,4.20
2022-10-16T07:31:19.486Z,4.00
2022-10-16T07:33:48.909Z,5.00
2022-10-16T07:36:17.380Z,4.00
2022-10-16T07:38:45.470Z,4.60
2022-10-16T07:41:15.705Z,6.00
2022-10-16T07:43:47.624Z,3.75
2022-10-16T07:46:15.686Z,4.75
2022-10-16T07:48:46.690Z,6.00
2022-10-16T07:51:14.924Z,5.75
2022-10-16T07:53:42.961Z,4.25
2022-10-16T07:56:11.197Z,7.60
2022-10-16T07:58:40.701Z,6.00
2022-10-16T08:01:09.586Z,4.00
2022-10-16T08:03:37.659Z,4.00
2022-10-16T08:06:06.300Z,4.80
2022-10-16T08:08:34.339Z,5.00
2022-10-16T08:11:04.780Z,4.00
2022-10-16T08:13:32.900Z,7.00
2022-10-16T08:16:02.393Z,6.00
2022-10-16T08:18:30.433Z,6.00
2022-10-16T08:20:58.875Z,5.00
2022-10-16T08:23:27.377Z,3.00
2022-10-16T08:25:56.733Z,5.40
2022-10-16T08:28:24.935Z,4.00
2022-10-16T08:30:53.084Z,6.00
2022-10-16T08:33:22.412Z,5.00
2022-10-16T08:35:54.562Z,8.25
2022-10-16T08:38:22.614Z,5.00
2022-10-16T08:40:52.921Z,4.33
2022-10-16T08:43:37.527Z,3.40
2022-10-16T08:46:13.005Z,4.00
2022-10-16T08:48:45.774Z,5.00
2022-10-16T08:51:15.957Z,4.00
2022-10-16T08:53:45.409Z,4.60
2022-10-16T08:56:13.422Z,4.40
2022-10-16T08:58:41.504Z,4.00
2022-10-16T09:01:14.345Z,4.50
2022-10-16T09:03:52.258Z,2.40
2022-10-16T09:06:27.127Z,3.33
2022-10-16T09:09:03.555Z,3.75
2022-10-16T09:11:37.049Z,4.00
2022-10-16T09:14:07.431Z,3.40
2022-10-16T09:16:36.177Z,5.40
2022-10-16T09:19:08.093Z,4.00
2022-10-16T09:21:37.989Z,3.00
2022-10-16T09:24:12.354Z,4.20
2022-10-16T09:26:40.366Z,2.80
2022-10-16T09:29:08.441Z,3.00
2022-10-16T09:31:37.941Z,3.00
2022-10-16T09:34:07.998Z,3.00
2022-10-16T09:36:38.424Z,3.00
2022-10-16T09:39:07.265Z,2.80
2022-10-16T09:41:36.675Z,2.60
2022-10-16T09:44:04.938Z,5.00
2022-10-16T09:46:33.621Z,5.50
2022-10-16T09:49:02.423Z,3.60
2022-10-16T09:51:32.651Z,3.00
2022-10-16T09:54:01.787Z,1.40
2022-10-16T09:56:30.722Z,1.00
2022-10-16T09:58:59.620Z,3.00
2022-10-16T10:01:31.785Z,3.00
2022-10-16T10:04:02.317Z,1.60
2022-10-16T10:06:33.236Z,3.00
2022-10-16T10:09:04.516Z,4.00
2022-10-16T10:11:40.161Z,1.25
2022-10-16T10:14:08.759Z,1.40
2022-10-16T10:16:36.817Z,1.60
2022-10-16T10:19:04.856Z,3.00
2022-10-16T10:21:36.426Z,2.60
2022-10-16T10:24:06.121Z,3.00
2022-10-16T10:26:37.811Z,2.00
2022-10-16T10:29:10.215Z,2.00
2022-10-16T10:31:40.913Z,2.00
2022-10-16T10:34:21.922Z,2.00
2022-10-16T10:36:54.742Z,0.75
2022-10-16T10:39:24.497Z,1.20
2022-10-16T10:42:11.117Z,0.40
2022-10-16T10:44:56.469Z,3.40
2022-10-16T10:47:28.905Z,1.25
2022-10-16T10:50:00.756Z,1.60
2022-10-16T10:52:51.268Z,1.80
2022-10-16T10:55:23.492Z,4.00
2022-10-16T10:58:06.486Z,1.60
2022-10-16T11:00:38.687Z,3.00
2022-10-16T11:03:11.544Z,2.00
2022-10-16T11:05:42.653Z,2.00
2022-10-16T11:08:15.854Z,2.00
2022-10-16T11:10:48.004Z,1.25
2022-10-16T11:13:24.830Z,2.25
2022-10-16T11:15:53.915Z,2.60
2022-10-16T11:18:23.353Z,3.80
2022-10-16T11:20:53.282Z,2.00
2022-10-16T11:23:25.761Z,3.00
2022-10-16T11:25:53.793Z,2.00
2022-10-16T11:28:23.838Z,3.75
2022-10-16T11:30:56.476Z,2.00
2022-10-16T11:33:32.514Z,2.50
2022-10-16T11:36:05.230Z,2.00
2022-10-16T11:38:36.872Z,2.00
2022-10-16T11:41:09.931Z,2.00
2022-10-16T11:43:40.365Z,2.00
2022-10-16T11:46:11.478Z,3.00
2022-10-16T11:48:42.285Z,2.00
2022-10-16T11:51:13.516Z,1.00
2022-10-16T11:53:47.020Z,2.00
2022-10-16T11:56:16.057Z,2.00
2022-10-16T11:58:46.982Z,3.00
2022-10-16T12:01:19.782Z,3.33
2022-10-16T12:03:51.359Z,3.00
2022-10-16T12:06:28.002Z,3.00
2022-10-16T12:08:57.612Z,1.75
2022-10-16T12:11:32.741Z,3.25
2022-10-16T12:14:24.713Z,1.60
2022-10-16T12:16:53.648Z,3.00
2022-10-16T12:19:22.257Z,1.75
2022-10-16T12:21:50.259Z,4.00
2022-10-16T12:24:34.251Z,1.50
2022-10-16T12:27:02.298Z,2.50
2022-10-16T12:29:36.521Z,1.00
2022-10-16T12:32:05.358Z,2.00
2022-10-16T12:34:38.798Z,2.00
2022-10-16T12:37:11.718Z,1.50
2022-10-16T12:39:41.124Z,1.00
2022-10-16T12:42:23.891Z,2.00
2022-10-16T12:44:52.007Z,3.00
2022-10-16T12:47:23.891Z,0.25
2022-10-16T12:49:52.809Z,0.60
2022-10-16T12:52:31.193Z,1.20
2022-10-16T12:55:01.874Z,1.00
2022-10-16T12:57:38.994Z,1.00
2022-10-16T13:00:12.193Z,1.00
2022-10-16T13:02:58.256Z,2.80
2022-10-16T13:05:31.730Z,1.00
2022-10-16T13:08:06.844Z,1.25
2022-10-16T13:10:38.066Z,1.60
2022-10-16T13:13:31.396Z,1.00
2022-10-16T13:16:11.166Z,0.80
2022-10-16T13:18:44.368Z,1.00
2022-10-16T13:21:20.087Z,4.00
2022-10-16T13:23:51.802Z,1.00
2022-10-16T13:26:27.037Z,1.00
2022-10-16T13:28:55.206Z,1.40
2022-10-16T13:31:25.016Z,2.00
2022-10-16T13:33:55.798Z,0.40
2022-10-16T13:36:24.914Z,0.00
2022-10-16T13:39:12.300Z,2.00
2022-10-16T13:41:41.770Z,1.00
2022-10-16T13:44:15.132Z,1.00
2022-10-16T13:46:43.146Z,2.00
2022-10-16T13:49:15.257Z,1.00
2022-10-16T13:51:43.263Z,1.00
2022-10-16T13:54:11.936Z,2.00
2022-10-16T13:56:41.406Z,0.50
2022-10-16T13:59:24.562Z,0.60
2022-10-16T14:01:52.847Z,0.50
2022-10-16T14:04:20.898Z,0.50
2022-10-16T14:06:51.168Z,0.00
2022-10-16T14:09:23.799Z,1.00
2022-10-16T14:11:53.778Z,1.00
2022-10-16T14:14:21.840Z,1.40
2022-10-16T14:16:49.858Z,1.00
2022-10-16T14:19:21.055Z,1.00
2022-10-16T14:21:49.070Z,0.25
2022-10-16T14:24:27.105Z,1.00
2022-10-16T14:26:57.496Z,1.20
2022-10-16T14:29:26.512Z,1.00
2022-10-16T14:31:58.350Z,1.00
2022-10-16T14:34:28.584Z,1.00
2022-10-16T14:36:56.939Z,2.00
2022-10-16T14:39:25.369Z,2.80
2022-10-16T14:41:59.116Z,0.00
2022-10-16T14:44:30.490Z,1.40
2022-10-16T14:46:58.501Z,1.40
2022-10-16T14:49:26.817Z,2.00
2022-10-16T14:51:54.820Z,2.00
2022-10-16T14:54:22.859Z,3.00
2022-10-16T14:56:52.370Z,2.00
2022-10-16T14:59:28.034Z,2.20
2022-10-16T15:01:56.047Z,2.75
2022-10-16T15:04:24.101Z,1.00
2022-10-16T15:06:52.147Z,0.40
2022-10-16T15:09:20.179Z,2.00
2022-10-16T15:11:48.595Z,1.00
2022-10-16T15:14:16.634Z,2.00
2022-10-16T15:16:46.943Z,4.25
2022-10-16T15:19:14.980Z,2.60
2022-10-16T15:21:43.417Z,3.00
2022-10-16T15:24:16.457Z,4.50
2022-10-16T15:26:47.979Z,4.00
2022-10-16T15:29:16.237Z,4.00
2022-10-16T15:31:48.247Z,5.60
2022-10-16T15:34:16.305Z,11.00
2022-10-16T15:36:44.317Z,8.40
2022-10-16T15:39:15.871Z,11.60
2022-10-16T15:41:44.242Z,3.75
2022-10-16T15:44:12.309Z,8.00
2022-10-16T15:46:40.326Z,7.20
2022-10-16T15:49:15.119Z,6.50
2022-10-16T15:51:43.666Z,25.25
2022-10-16T15:54:11.685Z,15.40
2022-10-16T15:56:39.734Z,11.00
2022-10-16T15:59:08.045Z,6.00
2022-10-16T16:01:36.511Z,7.00
2022-10-16T16:04:10.908Z,6.00
2022-10-16T16:06:46.796Z,8.00
2022-10-16T16:09:14.893Z,6.00
2022-10-16T16:11:43.029Z,6.00
2022-10-16T16:14:11.831Z,7.00
2022-10-16T16:16:39.904Z,5.00
2022-10-16T16:19:10.762Z,6.60
2022-10-16T16:21:39.873Z,7.60
2022-10-16T16:24:09.773Z,6.00
2022-10-16T16:26:40.641Z,5.00
2022-10-16T16:29:09.012Z,5.25
2022-10-16T16:31:37.137Z,19.00
2022-10-16T16:34:05.334Z,21.50
2022-10-16T16:36:33.461Z,22.75
2022-10-16T16:39:01.543Z,22.00
2022-10-16T16:41:31.966Z,14.20
2022-10-16T16:44:03.643Z,11.50
2022-10-16T16:46:31.838Z,8.00
2022-10-16T16:49:00.154Z,9.25
2022-10-16T16:51:28.255Z,10.00
2022-10-16T16:53:56.477Z,12.00
2022-10-16T16:56:24.680Z,7.60
2022-10-16T16:58:54.917Z,7.00
2022-10-16T17:01:23.438Z,9.00
2022-10-16T17:03:52.930Z,6.60
2022-10-16T17:06:21.470Z,7.00
2022-10-16T17:08:49.620Z,6.00
2022-10-16T17:11:18.433Z,4.00
2022-10-16T17:13:46.584Z,4.60
2022-10-16T17:16:15.986Z,3.00
2022-10-16T17:18:44.266Z,4.00
2022-10-16T17:21:12.370Z,4.20
2022-10-16T17:23:40.504Z,5.20
2022-10-16T17:26:08.813Z,7.00
2022-10-16T17:28:36.893Z,6.00
2022-10-16T17:33:45.862Z,5.40
2022-10-16T17:36:15.247Z,4.00
2022-10-16T17:38:43.301Z,3.00
2022-10-16T17:41:14.787Z,3.00
2022-10-16T17:43:42.800Z,5.00
2022-10-16T17:46:11.665Z,6.00
2022-10-16T17:48:39.979Z,5.00
2022-10-16T17:51:09.757Z,8.00
2022-10-16T17:53:37.909Z,6.40
2022-10-16T17:56:06.662Z,7.00
2022-10-16T17:58:34.691Z,3.00
2022-10-16T18:01:02.777Z,3.00
2022-10-16T18:03:30.792Z,5.00
2022-10-16T18:05:58.806Z,3.50
2022-10-16T18:08:28.916Z,3.00
2022-10-16T18:10:57.069Z,6.00
2022-10-16T18:13:25.089Z,6.00
2022-10-16T18:16:00.976Z,5.00
2022-10-16T18:18:29.841Z,6.40
2022-10-16T18:20:58.750Z,7.00
2022-10-16T18:23:28.250Z,6.60
2022-10-16T18:25:56.392Z,6.00
2022-10-16T18:28:24.630Z,7.00
2022-10-16T18:30:57.077Z,5.20
2022-10-16T18:33:25.140Z,8.00
2022-10-16T18:35:53.336Z,9.40
2022-10-16T18:38:21.413Z,9.00
2022-10-16T18:40:50.773Z,10.50
2022-10-16T18:43:19.005Z,14.00
2022-10-16T18:45:56.597Z,7.20
2022-10-16T18:48:24.698Z,8.00
2022-10-16T18:50:52.810Z,9.00
2022-10-16T18:53:21.137Z,6.60
2022-10-16T18:55:56.635Z,10.75
2022-10-16T18:58:24.663Z,12.00
2022-10-16T19:00:52.682Z,16.00
2022-10-16T19:03:21.383Z,14.25
2022-10-16T19:05:49.389Z,17.40
2022-10-16T19:08:17.430Z,14.80
2022-10-16T19:10:45.443Z,15.00
2022-10-16T19:13:14.894Z,18.40
2022-10-16T19:15:49.817Z,23.50
2022-10-16T19:18:27.233Z,18.00
2022-10-16T19:20:55.298Z,20.25
2022-10-16T19:23:23.356Z,15.25
2022-10-16T19:25:51.370Z,19.00
2022-10-16T19:28:20.829Z,19.75
2022-10-16T19:30:48.902Z,49.00
2022-10-16T19:33:16.930Z,43.00
2022-10-16T19:35:45.182Z,37.00
2022-10-16T19:38:13.225Z,39.25
2022-10-16T19:40:41.266Z,35.75
2022-10-16T19:43:09.326Z,39.00
2022-10-16T19:45:38.814Z,49.20
2022-10-16T19:48:06.921Z,44.60
2022-10-16T19:50:34.938Z,39.25
2022-10-16T19:53:02.980Z,33.00
2022-10-16T19:55:32.373Z,36.00
2022-10-16T19:58:00.415Z,35.80
2022-10-16T20:00:28.434Z,42.00
2022-10-16T20:07:10.385Z,29.25
2022-10-16T20:09:38.383Z,29.40
2022-10-16T20:12:06.844Z,33.00
2022-10-16T20:14:34.836Z,33.00
2022-10-16T20:17:02.918Z,36.60
2022-10-16T20:19:31.367Z,32.50
2022-10-16T20:21:59.425Z,31.33
2022-10-16T20:24:28.815Z,33.40
2022-10-16T20:26:57.001Z,31.50
2022-10-16T20:29:24.997Z,35.25
2022-10-16T20:31:53.033Z,27.60
2022-10-16T20:34:21.029Z,24.60
2022-10-16T20:36:50.821Z,25.00
2022-10-16T20:39:18.809Z,25.00
2022-10-16T20:41:48.184Z,22.00
2022-10-16T20:44:16.174Z,20.00
2022-10-16T20:46:44.200Z,25.60
2022-10-16T20:49:28.321Z,21.50
2022-10-16T20:52:00.189Z,22.50
2022-10-16T20:54:28.172Z,22.25
2022-10-16T20:56:58.032Z,23.60
2022-10-16T20:59:26.613Z,23.25
2022-10-16T21:01:54.705Z,16.40
2022-10-16T21:04:22.741Z,16.00
2022-10-16T21:06:50.724Z,15.00
2022-10-16T21:09:18.691Z,12.00
2022-10-16T21:11:46.678Z,18.75
2022-10-16T21:14:16.073Z,21.40
2022-10-16T21:16:44.073Z,11.00
2022-10-16T21:19:12.044Z,10.40
2022-10-16T21:21:40.058Z,13.75
2022-10-16T21:24:12.025Z,12.00
2022-10-16T21:26:43.076Z,12.00
2022-10-16T21:29:11.137Z,11.50
2022-10-16T21:31:40.767Z,15.50
2022-10-16T21:34:08.741Z,9.00
2022-10-16T21:36:37.680Z,17.25
2022-10-16T21:39:06.698Z,18.00
2022-10-16T21:41:34.860Z,17.40
2022-10-16T21:44:02.848Z,9.00
2022-10-16T21:46:32.736Z,9.75
2022-10-16T21:49:02.882Z,13.50
2022-10-16T21:51:32.507Z,16.00
2022-10-16T21:54:00.476Z,15.20
2022-10-16T21:56:28.529Z,17.25
2022-10-16T21:58:56.492Z,18.50
2022-10-16T22:01:25.242Z,14.60
2022-10-16T22:03:53.296Z,18.60
2022-10-16T22:06:25.575Z,15.40
2022-10-16T22:08:54.058Z,13.00
2022-10-16T22:11:23.671Z,22.00
2022-10-16T22:13:54.059Z,16.40
2022-10-16T22:16:25.098Z,20.20
2022-10-16T22:18:53.162Z,17.00
2022-10-16T22:21:22.584Z,19.00
2022-10-16T22:23:50.585Z,17.00
2022-10-16T22:26:18.582Z,16.00
2022-10-16T22:28:46.618Z,15.00
2022-10-16T22:31:15.035Z,19.00
2022-10-16T22:33:43.236Z,15.00
2022-10-16T22:36:12.368Z,11.00
2022-10-16T22:38:41.828Z,11.50
2022-10-16T22:41:10.716Z,13.50
2022-10-16T22:43:39.140Z,14.00
2022-10-16T22:46:08.646Z,15.20
2022-10-16T22:48:36.676Z,15.40
2022-10-16T22:51:04.817Z,16.00
2022-10-16T22:53:32.785Z,10.60
2022-10-16T22:56:02.124Z,10.00
2022-10-16T22:58:30.087Z,14.25
2022-10-16T23:03:30.958Z,11.40
2022-10-16T23:05:58.961Z,10.20
2022-10-16T23:08:26.934Z,10.50
2022-10-16T23:10:54.952Z,8.00
2022-10-16T23:13:24.274Z,10.25
2022-10-16T23:15:52.264Z,10.60
2022-10-16T23:18:20.233Z,10.00
2022-10-16T23:20:48.219Z,9.00
2022-10-16T23:23:16.187Z,14.75
2022-10-16T23:25:46.956Z,9.00
2022-10-16T23:30:49.653Z,7.75
2022-10-16T23:33:17.644Z,10.00
2022-10-16T23:35:45.740Z,9.00
2022-10-16T23:38:13.732Z,8.60
2022-10-16T23:40:41.714Z,13.60
2022-10-16T23:43:09.689Z,9.60
2022-10-16T23:45:37.691Z,7.60
2022-10-16T23:48:07.016Z,8.00
2022-10-16T23:50:35.017Z,6.80
2022-10-16T23:53:05.325Z,7.00
2022-10-16T23:55:37.296Z,9.00
2022-10-16T23:58:05.263Z,8.00
